Time;durP1;ratioP1;P1;durP2;ratioP2;P2;SDS_P1;SDS_P2;PMS_P1;PMS_P2;Temp;Humidity;BMP_temperature;BMP_pressure;BME280_temperature;BME280_humidity;BME280_pressure;Samples;Min_cycle;Max_cycle;Signal;HPM_P1;HPM_P2
2023/04/27 00:04:13;;;;;;;5.95;2.95;;;;;;;7.62;98.43;94440.31;10406780;28;20532;-75
2023/04/27 00:09:13;;;;;;;9.52;3.67;;;;;;;7.64;99.14;94451.59;10424225;28;20669;-75
2023/04/27 00:14:13;;;;;;;9.80;3.03;;;;;;;7.43;98.67;94448.81;10424298;28;20396;-75
2023/04/27 00:19:15;;;;;;;11.40;3.43;;;;;;;7.22;98.72;94457.81;10424473;28;20322;-75
2023/04/27 00:24:15;;;;;;;6.13;2.50;;;;;;;7.01;100.00;91555.75;10424757;28;20955;-75
2023/04/27 00:29:16;;;;;;;8.45;2.67;;;;;;;7.02;100.00;70291.31;10423042;28;20017;-75
2023/04/27 00:34:16;;;;;;;5.03;2.47;;;;;;;7.01;100.00;94455.78;10423834;28;20443;-75
2023/04/27 00:39:16;;;;;;;4.57;2.67;;;;;;;6.89;100.00;94457.84;10423041;28;20450;-74
2023/04/27 00:44:27;;;;;;;3.92;2.70;;;;;;;7.05;100.00;94458.78;10422875;28;20306;-75
2023/04/27 00:49:27;;;;;;;12.35;3.50;;;;;;;6.93;100.00;94469.63;10422961;28;20035;-75
2023/04/27 00:54:28;;;;;;;10.50;2.80;;;;;;;6.92;100.00;94465.38;10422637;28;20025;-75
2023/04/27 00:59:29;;;;;;;8.93;2.72;;;;;;;6.80;100.00;94470.09;10418503;28;20033;-74
2023/04/27 01:04:30;;;;;;;5.95;3.10;;;;;;;6.67;100.00;94472.13;10422907;28;20036;-74
2023/04/27 01:09:31;;;;;;;11.90;3.03;;;;;;;-146.07;100.00;70291.31;10422700;28;20501;-74
2023/04/27 01:14:31;;;;;;;6.63;2.97;;;;;;;-146.07;100.00;72740.03;10422584;28;20146;-74
2023/04/27 01:19:32;;;;;;;5.82;3.00;;;;;;;5.89;100.00;94495.59;10421488;28;20703;-73
2023/04/27 01:24:32;;;;;;;7.17;2.83;;;;;;;5.69;100.00;94493.50;10404030;28;20029;-73
2023/04/27 01:29:33;;;;;;;7.20;2.97;;;;;;;5.62;100.00;94489.19;10422347;28;20987;-73
2023/04/27 01:34:33;;;;;;;5.90;2.78;;;;;;;5.58;100.00;94489.91;10403265;28;20065;-74
2023/04/27 01:39:34;;;;;;;8.98;2.88;;;;;;;5.39;100.00;94492.09;10421316;28;20025;-73
2023/04/27 01:44:34;;;;;;;5.85;2.85;;;;;;;5.44;100.00;94500.94;10421583;28;20021;-73
2023/04/27 01:49:35;;;;;;;11.02;3.45;;;;;;;5.37;100.00;94505.66;10422100;28;20420;-73
2023/04/27 01:54:35;;;;;;;11.20;3.23;;;;;;;5.38;100.00;94503.78;10421212;28;20032;-73
2023/04/27 01:59:36;;;;;;;8.83;2.60;;;;;;;5.45;100.00;94505.19;10421112;28;20283;-73
2023/04/27 02:04:36;;;;;;;8.20;3.28;;;;;;;5.41;100.00;94500.63;10421113;28;20299;-75
2023/04/27 02:09:37;;;;;;;12.50;3.42;;;;;;;5.38;100.00;94512.56;10421480;28;20052;-73
2023/04/27 02:14:37;;;;;;;6.50;3.17;;;;;;;5.54;100.00;94510.94;10420473;28;20052;-73
2023/04/27 02:19:37;;;;;;;11.45;3.78;;;;;;;5.60;100.00;94504.59;10420802;28;20658;-74
2023/04/27 02:24:38;;;;;;;7.93;3.45;;;;;;;5.56;100.00;94506.16;10420528;28;20031;-74
2023/04/27 02:29:38;;;;;;;5.10;3.47;;;;;;;5.49;100.00;94510.84;10407089;28;20028;-73
2023/04/27 02:34:39;;;;;;;8.35;3.50;;;;;;;5.40;100.00;94505.16;10410874;28;20984;-73
2023/04/27 02:39:39;;;;;;;3.72;2.45;;;;;;;5.49;100.00;94508.19;10427572;28;20029;-74
2023/04/27 02:44:40;;;;;;;9.23;2.60;;;;;;;5.35;100.00;94512.28;10427579;28;20024;-74
2023/04/27 02:49:40;;;;;;;13.20;2.78;;;;;;;5.37;100.00;94518.97;10427158;28;20267;-74
2023/04/27 02:54:41;;;;;;;7.88;3.65;;;;;;;5.55;100.00;94509.84;10427049;28;20437;-74
2023/04/27 02:59:41;;;;;;;9.93;2.95;;;;;;;5.58;100.00;94511.22;10427179;28;20081;-73
2023/04/27 03:04:42;;;;;;;13.55;3.00;;;;;;;5.69;100.00;94520.16;10426938;28;20112;-73
2023/04/27 03:09:42;;;;;;;6.90;2.38;;;;;;;5.71;100.00;94520.75;10426803;28;20056;-73
2023/04/27 03:14:43;;;;;;;7.35;2.97;;;;;;;5.67;100.00;94532.97;10409302;28;20515;-73
2023/04/27 03:19:44;;;;;;;9.47;4.27;;;;;;;5.58;100.00;94541.38;10425963;28;20029;-73
2023/04/27 03:24:45;;;;;;;11.23;4.07;;;;;;;5.59;100.00;94544.84;10424644;28;20267;-74
2023/04/27 03:29:45;;;;;;;6.30;3.00;;;;;;;5.56;100.00;94540.00;10426222;28;20544;-74
2023/04/27 03:34:46;;;;;;;11.70;3.53;;;;;;;5.61;100.00;94554.22;10425361;28;20040;-75
2023/04/27 03:39:46;;;;;;;5.35;3.05;;;;;;;5.54;100.00;94555.44;10425219;28;20315;-74
2023/04/27 03:44:46;;;;;;;5.47;3.00;;;;;;;5.60;100.00;94560.59;10425883;28;20371;-75
2023/04/27 03:49:47;;;;;;;7.28;2.97;;;;;;;5.60;100.00;94563.25;10407482;28;20025;-75
2023/04/27 03:54:47;;;;;;;7.72;3.65;;;;;;;5.67;100.00;94567.63;10424906;28;20064;-75
2023/04/27 03:59:48;;;;;;;13.35;3.25;;;;;;;5.56;100.00;94566.66;10406843;28;20029;-75
2023/04/27 04:04:48;;;;;;;5.63;3.10;;;;;;;5.67;100.00;94584.41;10424030;28;20037;-74
2023/04/27 04:09:49;;;;;;;9.27;4.22;;;;;;;5.80;100.00;94585.91;10423036;28;20063;-74
2023/04/27 04:14:50;;;;;;;4.78;3.10;;;;;;;5.90;100.00;94594.06;10406451;28;20136;-75
2023/04/27 04:19:50;;;;;;;9.88;3.35;;;;;;;5.98;100.00;94601.63;10421801;28;20036;-75
2023/04/27 04:24:51;;;;;;;8.90;3.20;;;;;;;6.16;100.00;94599.72;10403818;28;20033;-75
2023/04/27 04:29:51;;;;;;;7.97;3.15;;;;;;;6.31;95.41;94612.47;10418851;28;20035;-75
2023/04/27 04:34:52;;;;;;;9.70;3.45;;;;;;;6.56;98.03;94613.78;10420364;28;20045;-75
2023/04/27 04:39:52;;;;;;;7.88;3.78;;;;;;;6.51;96.66;94619.88;10418199;28;20033;-74
2023/04/27 04:44:53;;;;;;;18.63;3.38;;;;;;;6.83;95.40;94611.13;10420051;28;20068;-74
2023/04/27 04:49:53;;;;;;;8.27;3.70;;;;;;;7.13;92.84;94618.63;10422162;28;20036;-73
2023/04/27 04:54:54;;;;;;;8.20;3.30;;;;;;;7.24;91.34;94630.22;10419454;28;20268;-74
2023/04/27 04:59:54;;;;;;;10.57;3.95;;;;;;;7.51;89.23;94637.38;10422052;28;20287;-73
2023/04/27 05:04:56;;;;;;;7.18;3.67;;;;;;;8.19;84.27;94631.34;10421985;28;20036;-73
2023/04/27 05:09:57;;;;;;;18.98;3.30;;;;;;;8.75;74.57;94636.19;10420636;28;20108;-74
2023/04/27 05:14:57;;;;;;;6.82;3.17;;;;;;;9.15;72.94;94641.88;10418634;28;20488;-73
2023/04/27 05:19:57;;;;;;;10.60;3.67;;;;;;;9.52;67.70;94647.00;10418182;28;20120;-73
2023/04/27 05:24:58;;;;;;;10.63;3.20;;;;;;;9.28;66.24;94652.09;10417889;28;20128;-73
2023/04/27 05:29:58;;;;;;;12.38;3.75;;;;;;;8.96;71.74;94650.44;10421071;28;20141;-73
2023/04/27 05:34:59;;;;;;;12.87;3.30;;;;;;;8.89;74.88;94650.69;10420977;28;20398;-73
2023/04/27 05:39:59;;;;;;;10.60;3.60;;;;;;;8.76;73.99;94647.69;10403075;28;20283;-74
2023/04/27 05:45:02;;;;;;;6.80;2.90;;;;;;;8.16;79.62;94653.31;10420420;28;20379;-72
2023/04/27 05:50:02;;;;;;;6.63;4.07;;;;;;;8.02;79.09;94652.97;10420901;28;20479;-73
2023/04/27 05:55:03;;;;;;;8.90;3.67;;;;;;;8.33;77.33;94664.66;10420751;28;20485;-73
2023/04/27 06:00:09;;;;;;;9.52;3.47;;;;;;;8.18;81.07;94661.91;10419407;28;20033;-75
2023/04/27 06:05:10;;;;;;;13.90;4.25;;;;;;;8.51;80.71;94662.59;10408215;28;20055;-75
2023/04/27 06:10:10;;;;;;;11.20;4.20;;;;;;;8.83;76.19;94667.00;10428670;28;20024;-75
2023/04/27 06:15:11;;;;;;;12.77;5.07;;;;;;;9.13;79.37;94660.13;10428982;28;20135;-74
2023/04/27 06:20:12;;;;;;;8.27;4.20;;;;;;;9.86;72.26;94664.44;10428564;28;20063;-75
2023/04/27 06:25:12;;;;;;;11.30;3.20;;;;;;;10.00;66.44;94664.69;10416549;28;20460;-74
2023/04/27 06:30:13;;;;;;;11.35;3.53;;;;;;;9.60;71.96;94660.94;10428635;28;20021;-73
2023/04/27 06:35:13;;;;;;;6.05;4.00;;;;;;;9.00;75.75;94666.78;10427565;28;20101;-73
2023/04/27 06:40:14;;;;;;;7.60;4.20;;;;;;;8.55;79.51;94666.38;10426768;28;20021;-74
2023/04/27 06:45:14;;;;;;;8.23;3.63;;;;;;;8.50;79.63;94656.44;10427577;28;20027;-75
2023/04/27 06:50:15;;;;;;;19.30;5.32;;;;;;;8.36;84.78;94661.44;10425873;28;20020;-74
2023/04/27 06:55:15;;;;;;;13.90;4.05;;;;;;;9.47;81.65;94659.63;10409375;28;20546;-74
2023/04/27 07:00:16;;;;;;;9.13;4.17;;;;;;;10.63;72.52;94658.09;10427239;28;20467;-74
2023/04/27 07:05:17;;;;;;;16.13;3.85;;;;;;;11.99;65.40;94639.72;10426078;28;20274;-74
2023/04/27 07:10:18;;;;;;;8.93;3.58;;;;;;;11.33;60.06;94639.16;10426903;28;20716;-74
2023/04/27 07:15:18;;;;;;;7.68;3.88;;;;;;;11.65;62.93;94640.50;10425568;28;20511;-74
2023/04/27 07:20:19;;;;;;;14.70;4.25;;;;;;;13.08;59.65;94637.38;10426846;28;20021;-74
2023/04/27 07:25:20;;;;;;;9.93;4.00;;;;;;;14.27;52.86;94636.28;10426316;28;20021;-74
2023/04/27 07:30:22;;;;;;;7.80;2.90;;;;;;;15.95;47.36;94620.53;10425409;28;20020;-74
2023/04/27 07:35:22;;;;;;;3.88;2.20;;;;;;;16.94;46.63;94614.13;10426672;28;20087;-74
2023/04/27 07:40:23;;;;;;;6.43;2.60;;;;;;;15.34;43.92;94634.44;10425964;28;20046;-74
2023/04/27 07:45:30;;;;;;;9.02;4.40;;;;;;;13.74;48.64;94634.78;10425690;28;20336;-74
2023/04/27 07:50:31;;;;;;;13.68;3.40;;;;;;;14.75;44.48;94634.34;10426516;28;20021;-74
2023/04/27 07:55:31;;;;;;;9.95;3.15;;;;;;;15.12;43.46;94633.28;10425453;28;20044;-74
2023/04/27 08:00:32;;;;;;;11.53;2.90;;;;;;;14.51;44.94;94633.44;10425282;28;20052;-74
2023/04/27 08:05:32;;;;;;;11.75;2.88;;;;;;;14.97;44.05;94633.59;10425290;28;20278;-74
2023/04/27 08:10:33;;;;;;;8.07;4.03;;;;;;;17.37;40.89;94610.66;10424364;28;20052;-74
2023/04/27 08:15:33;;;;;;;8.45;2.40;;;;;;;20.04;37.21;94607.69;10406481;28;20939;-74
2023/04/27 08:20:34;;;;;;;7.57;2.13;;;;;;;20.78;34.07;94621.50;10424495;28;20047;-72
2023/04/27 08:25:37;;;;;;;3.43;2.20;;;;;;;19.40;35.56;94615.13;10423570;28;20664;-74
2023/04/27 08:30:37;;;;;;;8.88;2.53;;;;;;;18.41;36.53;94619.78;10423603;28;20279;-74
2023/04/27 08:35:38;;;;;;;7.40;2.23;;;;;;;17.05;38.24;94623.56;10423314;28;20037;-74
2023/04/27 08:40:42;;;;;;;7.35;2.80;;;;;;;16.08;40.90;94619.69;10423008;28;20036;-74
2023/04/27 08:45:49;;;;;;;10.68;2.70;;;;;;;15.13;41.94;94623.28;10422954;28;20100;-74
2023/04/27 08:50:50;;;;;;;9.88;3.03;;;;;;;15.25;41.57;94628.13;10422446;28;20094;-72
2023/04/27 08:55:51;;;;;;;4.72;2.63;;;;;;;14.03;44.48;94633.75;10422688;28;20040;-74
2023/04/27 09:00:51;;;;;;;6.70;3.08;;;;;;;13.99;46.82;94638.94;10421721;28;20763;-74
2023/04/27 09:05:52;;;;;;;9.02;2.70;;;;;;;14.07;46.99;94625.88;10421675;28;20029;-73
2023/04/27 09:10:53;;;;;;;12.52;3.80;;;;;;;14.04;44.84;94640.78;10422269;28;20114;-74
2023/04/27 09:15:54;;;;;;;3.67;2.50;;;;;;;14.21;47.06;94631.31;10422151;28;20053;-73
2023/04/27 09:20:54;;;;;;;7.50;3.25;;;;;;;14.12;46.82;94621.19;10421400;28;20060;-74
2023/04/27 09:25:56;;;;;;;4.75;3.00;;;;;;;15.13;45.03;94615.16;10421581;28;20689;-74
2023/04/27 09:30:58;;;;;;;4.63;2.40;;;;;;;15.59;44.09;94600.53;10421585;28;20048;-74
2023/04/27 09:36:04;;;;;;;5.95;3.05;;;;;;;14.88;42.54;94608.38;10421868;28;20032;-74
2023/04/27 09:41:06;;;;;;;7.65;3.83;;;;;;;14.06;45.99;94599.94;10420823;28;20033;-73
2023/04/27 09:46:07;;;;;;;4.65;2.35;;;;;;;14.15;46.35;94590.84;10420728;28;20067;-74
2023/04/27 09:51:08;;;;;;;4.32;2.33;;;;;;;13.88;46.42;94593.50;10421023;28;20054;-74
2023/04/27 09:56:20;;;;;;;11.68;3.25;;;;;;;14.23;46.00;94581.22;10395892;28;20037;-74
2023/04/27 10:01:45;;;;;;;6.55;2.95;;;;;;;15.80;41.33;94570.25;10397992;28;20123;-74
2023/04/27 10:06:52;;;;;;;6.80;3.28;;;;;;;15.70;42.95;94574.78;10420855;28;20380;-74
2023/04/27 10:11:54;;;;;;;6.63;2.63;;;;;;;18.89;37.72;94564.19;10420944;28;20500;-74
2023/04/27 10:16:56;;;;;;;6.05;2.15;;;;;;;16.44;37.68;94572.63;10419526;28;20460;-74
2023/04/27 10:22:02;;;;;;;4.50;2.20;;;;;;;13.92;43.91;94583.72;10420215;28;20510;-74
2023/04/27 10:27:04;;;;;;;3.15;2.15;;;;;;;14.16;42.67;94584.34;10420097;28;20082;-74
2023/04/27 10:32:07;;;;;;;8.98;2.95;;;;;;;15.35;44.42;94579.19;10420312;28;20093;-74
2023/04/27 10:37:13;;;;;;;9.35;2.10;;;;;;;17.13;39.88;94573.09;10419899;28;20384;-74
2023/04/27 10:42:13;;;;;;;6.63;2.50;;;;;;;16.30;39.55;94580.03;10418801;28;20045;-73
2023/04/27 10:47:20;;;;;;;6.07;2.17;;;;;;;19.09;35.24;94557.16;10420033;28;20475;-73
2023/04/27 10:52:21;;;;;;;6.23;1.90;;;;;;;20.75;33.29;94551.97;10426940;28;20029;-73
2023/04/27 10:57:22;;;;;;;4.40;1.80;;;;;;;18.77;34.19;94564.06;10426755;28;20305;-73
2023/04/27 11:02:27;;;;;;;5.60;2.47;;;;;;;17.33;35.86;94566.22;10426953;28;20471;-72
2023/04/27 11:07:28;;;;;;;5.70;2.53;;;;;;;16.73;38.27;94565.81;10426153;28;20107;-73
2023/04/27 11:12:30;;;;;;;7.82;2.28;;;;;;;16.89;37.49;94549.91;10426440;28;20044;-73
2023/04/27 11:17:31;;;;;;;6.10;1.83;;;;;;;16.35;38.06;94553.63;10426700;28;20032;-73
2023/04/27 11:22:32;;;;;;;6.38;2.50;;;;;;;15.54;38.21;94565.44;10426091;28;20491;-73
2023/04/27 11:27:39;;;;;;;5.38;2.05;;;;;;;15.52;39.93;94565.75;10424331;28;20025;-73
2023/04/27 11:32:40;;;;;;;10.02;2.38;;;;;;;15.07;40.51;94565.75;10426378;28;20024;-73
2023/04/27 11:37:41;;;;;;;6.03;2.72;;;;;;;14.82;41.62;94572.53;10425777;28;20083;-73
2023/04/27 11:42:45;;;;;;;8.00;2.05;;;;;;;14.80;41.47;94575.50;10425353;28;20050;-73
2023/04/27 11:47:46;;;;;;;5.30;2.45;;;;;;;15.00;42.05;94578.88;10429337;28;20064;-74
2023/04/27 11:52:48;;;;;;;5.95;2.50;;;;;;;15.55;42.24;94572.47;10424772;28;20039;-74
2023/04/27 11:57:48;;;;;;;4.00;2.22;;;;;;;14.64;42.59;94587.78;10424941;28;20039;-74
2023/04/27 12:02:49;;;;;;;5.38;3.88;;;;;;;14.49;43.99;94586.94;10423280;28;20463;-73
2023/04/27 12:07:51;;;;;;;7.72;2.95;;;;;;;14.55;41.57;94584.94;10424350;28;20025;-73
2023/04/27 12:12:51;;;;;;;3.60;2.20;;;;;;;14.80;41.88;94594.44;10423450;28;20067;-73
2023/04/27 12:17:51;;;;;;;4.45;2.42;;;;;;;13.18;44.03;94597.84;10424349;28;20460;-74
2023/04/27 12:22:53;;;;;;;5.33;2.87;;;;;;;13.52;44.78;94602.22;10423988;28;20021;-74
2023/04/27 12:27:53;;;;;;;9.05;2.50;;;;;;;13.80;44.31;94597.69;10423929;28;20267;-73
2023/04/27 12:32:54;;;;;;;11.02;3.40;;;;;;;13.84;43.18;94602.22;10423277;28;20021;-73
2023/04/27 12:37:54;;;;;;;4.30;2.47;;;;;;;14.07;43.15;94588.84;10423163;28;20025;-73
2023/04/27 12:42:55;;;;;;;3.85;2.30;;;;;;;14.04;43.32;94591.31;10423727;28;20021;-73
2023/04/27 12:47:55;;;;;;;6.93;2.33;;;;;;;14.19;43.32;94597.25;10422922;28;20028;-72
2023/04/27 12:52:56;;;;;;;3.20;2.15;;;;;;;13.82;44.68;94600.91;10422748;28;20267;-73
2023/04/27 12:57:57;;;;;;;5.32;2.28;;;;;;;14.04;44.71;94597.53;10422379;28;20470;-74
2023/04/27 13:02:57;;;;;;;3.58;1.90;;;;;;;14.36;43.27;94595.88;10404659;28;20033;-74
2023/04/27 13:07:58;;;;;;;7.95;2.92;;;;;;;14.38;42.95;94590.94;10422062;28;20017;-74
2023/04/27 13:12:58;;;;;;;4.55;1.92;;;;;;;14.16;43.00;94599.75;10421187;28;20106;-73
2023/04/27 13:18:00;;;;;;;10.88;2.88;;;;;;;13.21;46.02;94598.06;10422691;28;20033;-73
2023/04/27 13:23:03;;;;;;;8.60;4.03;;;;;;;13.14;48.11;94600.31;10427193;28;20042;-72
2023/04/27 13:28:04;;;;;;;9.38;2.33;;;;;;;12.68;45.52;94590.19;10421612;28;20017;-73
2023/04/27 13:33:04;;;;;;;6.53;2.63;;;;;;;12.42;46.40;94591.31;10421361;28;20028;-73
2023/04/27 13:38:05;;;;;;;4.90;2.25;;;;;;;11.79;48.16;94592.19;10419277;28;20025;-74
2023/04/27 13:43:05;;;;;;;4.18;2.65;;;;;;;11.73;48.37;94596.03;10421109;28;20049;-73
2023/04/27 13:48:06;;;;;;;5.13;2.97;;;;;;;12.13;51.32;94600.25;10419516;28;20479;-74
2023/04/27 13:53:07;;;;;;;5.25;2.53;;;;;;;12.69;49.38;94591.78;10420990;28;20278;-73
2023/04/27 13:58:07;;;;;;;4.03;2.63;;;;;;;12.93;47.40;94599.81;10420119;28;20052;-74
2023/04/27 14:03:08;;;;;;;8.03;4.73;;;;;;;13.05;45.98;94594.78;10420749;28;20027;-73
2023/04/27 14:08:10;;;;;;;4.93;3.00;;;;;;;13.05;46.02;94604.78;10420352;28;20333;-69
2023/04/27 14:13:11;;;;;;;2.70;2.20;;;;;;;13.20;46.26;94606.44;10420583;28;20492;-72
2023/04/27 14:18:11;;;;;;;3.88;2.78;;;;;;;13.30;44.98;94607.09;10420696;28;20052;-73
2023/04/27 14:23:12;;;;;;;9.13;3.42;;;;;;;13.20;43.25;94609.13;10420820;28;20072;-70
2023/04/27 14:28:13;;;;;;;21.58;2.80;;;;;;;12.60;46.14;94623.97;10428238;28;20466;-72
2023/04/27 14:33:14;;;;;;;4.70;2.65;;;;;;;12.90;46.16;94624.69;10427909;28;20033;-72
2023/04/27 14:38:14;;;;;;;5.22;2.15;;;;;;;12.93;45.68;94632.19;10427422;28;20090;-72
2023/04/27 14:43:16;;;;;;;9.98;3.10;;;;;;;13.24;44.90;94642.53;10427106;28;20071;-71
2023/04/27 14:48:17;;;;;;;2.25;2.05;;;;;;;13.19;44.15;94640.72;10427355;28;20021;-72
2023/04/27 14:53:17;;;;;;;16.83;3.55;;;;;;;13.28;45.36;94647.09;10426818;28;20044;-72
2023/04/27 14:58:18;;;;;;;4.75;2.58;;;;;;;13.26;43.98;94641.16;10426943;28;20384;-72
2023/04/27 15:03:18;;;;;;;7.38;2.65;;;;;;;13.29;43.60;94650.56;10426762;28;20036;-72
2023/04/27 15:08:19;;;;;;;10.45;3.08;;;;;;;13.37;44.33;94647.25;10426541;28;20025;-72
2023/04/27 15:13:20;;;;;;;5.45;3.05;;;;;;;13.37;44.02;94654.53;10426442;28;20069;-72
2023/04/27 15:18:34;;;;;;;8.77;2.40;;;;;;;12.93;45.54;94657.25;10426147;28;20139;-72
2023/04/27 15:23:35;;;;;;;7.93;2.90;;;;;;;12.56;44.52;94668.75;10438541;28;20163;-72
2023/04/27 15:28:39;;;;;;;6.60;2.85;;;;;;;12.69;43.99;94667.28;10425291;28;20017;-70
2023/04/27 15:33:42;;;;;;;4.10;2.70;;;;;;;12.44;45.61;94671.88;10424865;28;20033;-72
2023/04/27 15:38:43;;;;;;;6.45;2.83;;;;;;;12.11;46.69;94669.78;10424249;28;20301;-73
2023/04/27 15:43:44;;;;;;;8.15;3.13;;;;;;;11.05;47.82;94684.53;10424780;28;20029;-73
2023/04/27 15:48:45;;;;;;;6.10;3.28;;;;;;;10.78;48.47;94692.97;10406600;28;20013;-71
2023/04/27 15:53:45;;;;;;;5.67;3.03;;;;;;;10.73;47.96;94696.50;10424622;28;20416;-72
2023/04/27 15:58:46;;;;;;;8.13;3.47;;;;;;;10.50;49.77;94697.09;10424222;28;20326;-72
2023/04/27 16:03:46;;;;;;;4.43;3.22;;;;;;;10.46;51.24;94698.72;10423770;28;20348;-72
2023/04/27 16:08:47;;;;;;;11.10;3.50;;;;;;;10.46;51.29;94702.22;10424312;28;20475;-71
2023/04/27 16:13:51;;;;;;;7.78;3.38;;;;;;;10.42;51.92;94714.56;10423171;28;20821;-71
2023/04/27 16:18:51;;;;;;;10.52;3.13;;;;;;;10.45;51.01;94705.19;10426421;28;20033;-72
2023/04/27 16:23:52;;;;;;;6.25;3.33;;;;;;;10.33;50.18;94711.63;10405588;28;20035;-72
2023/04/27 16:28:55;;;;;;;5.65;3.17;;;;;;;10.26;51.63;94729.91;10423496;28;20023;-72
2023/04/27 16:33:55;;;;;;;5.85;3.35;;;;;;;10.00;51.11;94731.81;10429885;28;20037;-72
2023/04/27 16:38:56;;;;;;;7.70;4.37;;;;;;;9.96;53.70;94730.72;10422672;28;20434;-72
2023/04/27 16:43:56;;;;;;;7.13;3.17;;;;;;;9.68;54.61;94740.91;10422946;28;20281;-72
2023/04/27 16:48:56;;;;;;;10.20;3.90;;;;;;;9.88;57.47;94750.88;10422380;28;20019;-71
2023/04/27 16:53:57;;;;;;;6.10;3.40;;;;;;;9.65;58.19;94758.34;10422882;28;20342;-71
2023/04/27 16:58:57;;;;;;;4.57;3.40;;;;;;;9.51;58.37;94755.38;10422500;28;20075;-71
2023/04/27 17:03:59;;;;;;;14.60;4.05;;;;;;;9.64;59.72;94770.19;10422034;28;20025;-71
2023/04/27 17:09:00;;;;;;;4.97;3.70;;;;;;;9.53;60.42;94774.72;10421508;28;20485;-71
2023/04/27 17:14:00;;;;;;;6.47;3.88;;;;;;;9.50;62.18;94766.38;10421781;28;20056;-71
2023/04/27 17:19:01;;;;;;;5.70;3.37;;;;;;;9.49;63.18;94775.50;10420962;28;20486;-71
2023/04/27 17:24:02;;;;;;;6.35;4.10;;;;;;;9.50;62.37;94777.94;10421612;28;20275;-73
2023/04/27 17:29:02;;;;;;;5.10;3.50;;;;;;;9.53;63.55;94788.13;10420825;28;20104;-72
2023/04/27 17:34:02;;;;;;;5.60;3.70;;;;;;;9.37;63.90;94794.53;10421042;28;20522;-71
2023/04/27 17:39:03;;;;;;;7.40;4.43;;;;;;;9.18;65.36;94802.22;10421068;28;20734;-72
2023/04/27 17:44:04;;;;;;;10.23;4.22;;;;;;;8.98;68.40;94814.47;10420876;28;20136;-72
2023/04/27 17:49:05;;;;;;;9.02;3.97;;;;;;;8.97;70.99;94822.78;10420696;28;20021;-72
2023/04/27 17:54:05;;;;;;;11.98;4.95;;;;;;;9.01;71.46;94824.66;10419830;28;20054;-72
2023/04/27 17:59:09;;;;;;;6.50;4.43;;;;;;;9.09;70.07;94836.00;10422678;28;20369;-72
2023/04/27 18:04:09;;;;;;;6.90;4.32;;;;;;;9.04;69.53;94842.94;10428470;28;20044;-72
2023/04/27 18:09:10;;;;;;;6.15;3.92;;;;;;;9.18;74.59;94850.50;10428821;28;20040;-72
2023/04/27 18:14:11;;;;;;;7.45;4.22;;;;;;;9.24;71.11;94863.66;10409466;28;20049;-79
2023/04/27 18:19:12;;;;;;;11.05;5.43;;;;;;;8.99;71.01;94867.03;10401073;28;20100;-72
2023/04/27 18:24:12;;;;;;;9.60;4.47;;;;;;;9.02;73.25;94879.09;10397578;28;20029;-73
2023/04/27 18:29:12;;;;;;;9.47;4.40;;;;;;;9.13;72.84;94883.47;10392127;28;20272;-71
2023/04/27 18:34:13;;;;;;;8.20;4.95;;;;;;;9.00;71.52;94890.09;10386303;28;20097;-70
2023/04/27 18:39:13;;;;;;;8.48;4.78;;;;;;;8.91;76.69;94899.69;10399919;28;20033;-71
2023/04/27 18:44:14;;;;;;;6.82;4.20;;;;;;;9.06;79.10;94902.44;10406955;28;20040;-71
2023/04/27 18:49:15;;;;;;;6.60;4.38;;;;;;;9.06;76.30;94912.38;10411681;28;20029;-71
2023/04/27 18:54:15;;;;;;;11.52;4.68;;;;;;;9.18;74.71;94907.63;10392224;28;20063;-70
2023/04/27 18:59:16;;;;;;;9.68;4.40;;;;;;;9.16;72.84;94919.66;10401241;28;20025;-70
2023/04/27 19:04:16;;;;;;;11.07;4.77;;;;;;;9.19;75.48;94922.63;10405319;28;20390;-70
2023/04/27 19:09:18;;;;;;;7.67;4.50;;;;;;;9.10;74.94;94923.38;10398022;28;20287;-69
2023/04/27 19:14:23;;;;;;;8.45;4.38;;;;;;;8.86;74.90;94929.13;10407276;28;20835;-69
2023/04/27 19:19:24;;;;;;;8.32;4.80;;;;;;;8.93;77.88;94940.44;10395814;28;20558;-71
2023/04/27 19:24:25;;;;;;;7.68;4.47;;;;;;;8.92;77.66;94938.00;10398703;28;20032;-71
2023/04/27 19:29:26;;;;;;;6.80;4.68;;;;;;;8.82;75.77;94936.88;10400967;28;20029;-71
2023/04/27 19:34:27;;;;;;;5.32;4.30;;;;;;;8.76;77.02;94953.16;10389576;28;20460;-71
2023/04/27 19:39:28;;;;;;;8.73;4.70;;;;;;;8.55;78.66;94948.47;10382558;28;20021;-69
2023/04/27 19:44:29;;;;;;;10.32;4.72;;;;;;;8.35;80.15;94951.72;10395663;28;20017;-72
2023/04/27 19:49:31;;;;;;;8.32;4.25;;;;;;;8.25;82.60;94959.66;10401463;28;20271;-71
2023/04/27 19:54:32;;;;;;;5.40;3.92;;;;;;;8.24;80.50;94958.03;10403916;28;20036;-70
2023/04/27 19:59:33;;;;;;;7.47;4.47;;;;;;;8.27;87.27;94968.22;10399686;28;20734;-72
2023/04/27 20:04:34;;;;;;;7.60;4.47;;;;;;;8.34;81.46;94970.72;10396901;28;20021;-71
2023/04/27 20:09:34;;;;;;;12.13;5.22;;;;;;;8.25;83.39;94969.53;10404098;28;20041;-71
2023/04/27 20:14:37;;;;;;;8.57;4.00;;;;;;;8.48;87.91;94968.47;10401260;28;20055;-71
2023/04/27 20:19:41;;;;;;;8.48;4.82;;;;;;;8.42;79.61;94961.44;10401308;28;20497;-72
2023/04/27 20:24:44;;;;;;;6.30;4.00;;;;;;;8.51;83.24;94959.91;10403177;28;20392;-71
2023/04/27 20:29:47;;;;;;;6.15;4.20;;;;;;;8.29;81.93;94970.66;10405487;28;20499;-70
2023/04/27 20:34:47;;;;;;;7.45;3.88;;;;;;;8.42;82.62;94961.44;10398249;28;20041;-73
2023/04/27 20:39:47;;;;;;;6.32;4.10;;;;;;;8.45;84.00;94972.47;10390967;28;20770;-73
2023/04/27 20:44:49;;;;;;;11.50;4.55;;;;;;;8.46;83.64;94974.09;10403725;28;20029;-74
2023/04/27 20:49:50;;;;;;;6.20;3.90;;;;;;;8.38;81.45;94983.34;10392644;28;20527;-71
2023/04/27 20:54:50;;;;;;;6.53;3.65;;;;;;;8.12;84.93;94970.75;10401099;28;20029;-75
2023/04/27 20:59:50;;;;;;;7.43;4.67;;;;;;;8.03;83.83;94978.44;10396390;28;20414;-73
2023/04/27 21:04:51;;;;;;;6.80;3.27;;;;;;;7.86;86.92;94975.84;10404929;28;20275;-73
2023/04/27 21:09:52;;;;;;;9.10;4.38;;;;;;;7.81;87.27;94973.09;10398854;28;20718;-69
2023/04/27 21:14:52;;;;;;;8.25;4.65;;;;;;;7.76;85.29;94975.69;10387979;28;20042;-70
2023/04/27 21:19:53;;;;;;;4.50;3.28;;;;;;;7.48;84.89;94981.00;10384482;28;20044;-70
2023/04/27 21:24:53;;;;;;;4.05;3.45;;;;;;;7.41;87.94;94990.22;10420684;28;20054;-71
2023/04/27 21:29:54;;;;;;;6.97;4.15;;;;;;;7.22;91.04;94981.69;10415042;28;20043;-72
2023/04/27 21:34:55;;;;;;;5.07;3.70;;;;;;;7.25;86.88;94982.00;10416709;28;20025;-71
2023/04/27 21:39:55;;;;;;;6.05;3.20;;;;;;;7.10;88.22;94984.44;10418135;28;20021;-71
2023/04/27 21:44:56;;;;;;;3.55;3.22;;;;;;;7.17;87.71;94982.41;10418114;28;20025;-71
2023/04/27 21:49:56;;;;;;;9.15;4.05;;;;;;;6.97;89.46;94986.41;10417006;28;20092;-71
2023/04/27 21:54:57;;;;;;;8.47;3.83;;;;;;;6.94;90.27;94984.22;10413416;28;20025;-71
2023/04/27 21:59:58;;;;;;;6.32;3.80;;;;;;;6.79;87.23;94986.66;10419791;28;20284;-71
2023/04/27 22:04:59;;;;;;;11.65;3.25;;;;;;;6.60;87.92;94984.22;10420595;28;20190;-71
2023/04/27 22:10:00;;;;;;;4.65;3.20;;;;;;;6.45;91.77;94983.97;10420312;28;20356;-71
2023/04/27 22:15:00;;;;;;;8.65;3.40;;;;;;;6.33;92.22;95000.88;10420390;28;20411;-71
2023/04/27 22:20:01;;;;;;;6.63;3.22;;;;;;;6.44;94.74;94996.50;10420017;28;20510;-71
2023/04/27 22:25:02;;;;;;;10.18;3.50;;;;;;;6.17;93.04;94993.63;10420476;28;20029;-71
2023/04/27 22:30:03;;;;;;;4.97;3.17;;;;;;;6.20;91.21;94995.81;10420581;28;20029;-71
2023/04/27 22:35:05;;;;;;;7.43;3.22;;;;;;;6.06;95.46;94991.81;10420553;28;20077;-71
2023/04/27 22:40:07;;;;;;;7.22;3.50;;;;;;;6.06;93.32;94989.16;10420129;28;20600;-71
2023/04/27 22:45:08;;;;;;;7.10;3.75;;;;;;;5.97;93.01;94994.84;10436123;28;20430;-72
2023/04/27 22:50:10;;;;;;;4.05;2.58;;;;;;;6.05;93.08;94988.31;10428793;28;20028;-71
2023/04/27 22:55:11;;;;;;;4.60;2.85;;;;;;;6.01;94.03;94978.38;10427555;28;20050;-72
2023/04/27 23:00:12;;;;;;;4.10;3.05;;;;;;;6.09;92.82;94978.78;10427054;28;20039;-72
2023/04/27 23:05:12;;;;;;;9.00;2.92;;;;;;;6.22;89.75;94980.34;10409094;28;20032;-72
2023/04/27 23:10:13;;;;;;;6.93;3.60;;;;;;;6.27;93.55;94976.97;10427180;28;20048;-72
2023/04/27 23:15:15;;;;;;;8.52;4.18;;;;;;;6.31;90.46;94970.91;10426476;28;20394;-71
2023/04/27 23:20:16;;;;;;;7.93;3.20;;;;;;;6.47;86.73;94971.19;10426421;28;20048;-72
2023/04/27 23:25:17;;;;;;;3.05;2.63;;;;;;;6.52;86.77;94973.94;10426460;28;20037;-71